Time;durP1;ratioP1;P1;durP2;ratioP2;P2;SDS_P1;SDS_P2;PMS_P1;PMS_P2;Temp;Humidity;BMP_temperature;BMP_pressure;BME280_temperature;BME280_humidity;BME280_pressure;Samples;Min_cycle;Max_cycle;Signal;HPM_P1;HPM_P2
2024/01/01 00:01:12;;;;;;;2.45;1.83;;;;;;;;;;4978949;28;20072;-50
2024/01/01 00:04:06;;;;;;;2.22;1.70;;;;;;;;;;4981289;28;20058;-53
2024/01/01 00:06:56;;;;;;;3.35;2.30;;;;;;;;;;4974717;28;20058;-62
2024/01/01 00:09:50;;;;;;;3.45;2.15;;;;;;;;;;4982319;28;20086;-62
2024/01/01 00:12:44;;;;;;;3.20;2.00;;;;;;;;;;4982588;28;20137;-62
2024/01/01 00:15:31;;;;;;;3.15;1.98;;;;;;;;;;4983328;28;20490;-52
2024/01/01 00:18:25;;;;;;;2.60;2.00;;;;;;;;;;4975694;28;20108;-67
2024/01/01 06:18:55;;;;;;;3.88;2.00;;;;;;;;;;4965362;28;20070;-63
2024/01/01 06:21:30;;;;;;;6.18;1.95;;;;;;;;;;4964877;28;20136;-63
2024/01/01 06:23:57;;;;;;;3.28;2.40;;;;;;;;;;4937392;28;20126;-63
2024/01/01 06:26:24;;;;;;;4.43;2.42;;;;;;;;;;4966460;28;20058;-63
2024/01/01 06:29:17;;;;;;;4.30;2.55;;;;;;;;;;4963199;28;20062;-55
2024/01/01 06:32:05;;;;;;;4.93;2.63;;;;;;;;;;4967330;28;20703;-57
2024/01/01 06:34:58;;;;;;;7.65;2.22;;;;;;;;;;4963795;28;20050;-56
2024/01/01 06:37:46;;;;;;;3.65;2.10;;;;;;;;;;4961245;28;20047;-58
2024/01/01 06:40:43;;;;;;;3.28;2.28;;;;;;;;;;4962054;28;20089;-57
2024/01/01 06:43:30;;;;;;;5.45;1.60;;;;;;;;;;4949879;28;24181;-63
2024/01/01 06:46:23;;;;;;;3.60;2.38;;;;;;;;;;4961423;28;20392;-63
2024/01/01 06:49:10;;;;;;;2.80;2.17;;;;;;;;;;4958168;28;20053;-63
2024/01/01 06:52:06;;;;;;;4.43;2.40;;;;;;;;;;4957943;28;20043;-63
2024/01/01 06:54:59;;;;;;;4.60;2.20;;;;;;;;;;4956065;28;20057;-63
2024/01/01 06:57:46;;;;;;;3.13;2.20;;;;;;;;;;4956437;28;20196;-59
2024/01/01 07:00:40;;;;;;;2.22;1.40;;;;;;;;;;4953673;28;20065;-57
2024/01/01 07:03:27;;;;;;;1.67;1.50;;;;;;;;;;4952646;28;20058;-55
2024/01/01 07:06:20;;;;;;;3.17;1.73;;;;;;;;;;4960438;28;20525;-56
2024/01/01 07:09:12;;;;;;;2.92;2.15;;;;;;;;;;4956769;28;20067;-58
2024/01/01 07:12:19;;;;;;;2.53;1.98;;;;;;;;;;4959461;28;20090;-48
2024/01/01 07:15:12;;;;;;;2.17;1.65;;;;;;;;;;4958019;28;20058;-53
2024/01/01 07:18:14;;;;;;;3.63;1.83;;;;;;;;;;4974180;28;20077;-54
2024/01/01 07:21:00;;;;;;;4.13;2.10;;;;;;;;;;4979027;28;20964;-52
2024/01/01 07:23:54;;;;;;;2.63;1.83;;;;;;;;;;4974288;28;20130;-69
2024/01/01 07:26:41;;;;;;;2.25;1.63;;;;;;;;;;4978959;28;20533;-68
2024/01/01 07:29:35;;;;;;;2.03;1.33;;;;;;;;;;4977139;28;20384;-67
2024/01/01 07:32:29;;;;;;;4.30;2.28;;;;;;;;;;4970602;28;20057;-68
2024/01/01 07:35:17;;;;;;;2.78;2.05;;;;;;;;;;4981377;28;20058;-67
2024/01/01 07:38:10;;;;;;;3.70;2.25;;;;;;;;;;4977756;28;20054;-68
2024/01/01 07:40:58;;;;;;;6.18;1.92;;;;;;;;;;4978959;28;20050;-52
2024/01/01 07:43:51;;;;;;;2.50;1.80;;;;;;;;;;4977547;28;20081;-55
2024/01/01 07:46:39;;;;;;;2.63;1.75;;;;;;;;;;4981200;28;20986;-54
2024/01/01 07:49:32;;;;;;;2.58;1.48;;;;;;;;;;4980933;28;20058;-56
2024/01/01 07:52:19;;;;;;;2.35;1.90;;;;;;;;;;4978173;28;20054;-63
2024/01/01 07:55:13;;;;;;;2.40;1.80;;;;;;;;;;4982430;28;20186;-54
2024/01/01 07:58:00;;;;;;;2.85;1.75;;;;;;;;;;4978641;28;20601;-50
2024/01/01 08:00:55;;;;;;;3.08;2.03;;;;;;;;;;4975861;28;20104;-51
2024/01/01 08:03:48;;;;;;;2.97;2.20;;;;;;;;;;4980940;28;20061;-50
2024/01/01 08:06:17;;;;;;;2.22;1.60;;;;;;;;;;4979632;28;20066;-47
2024/01/01 08:08:51;;;;;;;2.75;2.25;;;;;;;;;;4980667;28;20061;-59
2024/01/01 08:11:19;;;;;;;3.63;1.67;;;;;;;;;;4985674;28;20506;-61
2024/01/01 08:13:46;;;;;;;;;;;;;;;;;;4978873;28;20054;-61
2024/01/01 08:16:46;;;;;;;2.05;1.73;;;;;;;;;;4968178;28;19929;-63
2024/01/01 08:19:53;;;;;;;4.13;2.40;;;;;;;;;;4980433;28;20050;-64
2024/01/01 08:22:40;;;;;;;2.40;1.42;;;;;;;;;;4973668;28;20058;-63
2024/01/01 08:25:34;;;;;;;3.53;2.42;;;;;;;;;;4978254;28;20061;-61
2024/01/01 08:28:22;;;;;;;2.00;1.45;;;;;;;;;;4982396;28;20050;-52
2024/01/01 08:31:15;;;;;;;2.65;2.00;;;;;;;;;;4982114;28;20062;-54
2024/01/01 08:34:03;;;;;;;3.13;1.90;;;;;;;;;;4985486;28;20051;-50
2024/01/01 08:36:56;;;;;;;2.25;1.83;;;;;;;;;;4987714;28;20042;-54
2024/01/01 08:39:44;;;;;;;2.72;1.80;;;;;;;;;;4985984;28;20042;-60
2024/01/01 08:42:37;;;;;;;3.28;2.40;;;;;;;;;;4983788;28;20062;-56
2024/01/01 08:45:31;;;;;;;2.85;1.90;;;;;;;;;;4982855;28;20054;-55
2024/01/01 08:48:18;;;;;;;3.78;2.00;;;;;;;;;;4982801;28;20047;-56
2024/01/01 08:51:13;;;;;;;2.53;1.90;;;;;;;;;;4984501;28;20056;-56
2024/01/01 08:54:01;;;;;;;3.17;2.10;;;;;;;;;;4982438;28;20097;-52
2024/01/01 08:56:53;;;;;;;3.33;2.10;;;;;;;;;;4982902;28;20506;-55
2024/01/01 08:59:41;;;;;;;3.45;2.10;;;;;;;;;;4983165;28;20066;-52
2024/01/01 09:02:34;;;;;;;3.10;2.00;;;;;;;;;;4975891;28;20047;-53
2024/01/01 09:05:21;;;;;;;3.65;2.08;;;;;;;;;;4978308;28;20088;-60
2024/01/01 09:08:15;;;;;;;4.13;2.10;;;;;;;;;;4979064;28;20102;-49
2024/01/01 09:11:09;;;;;;;1.90;1.38;;;;;;;;;;4978494;28;20090;-67
2024/01/01 09:14:03;;;;;;;3.45;2.10;;;;;;;;;;4980167;28;20058;-69
2024/01/01 09:16:57;;;;;;;2.97;2.10;;;;;;;;;;4979082;28;20093;-69
2024/01/01 09:19:52;;;;;;;3.03;1.90;;;;;;;;;;4981245;28;20042;-67
2024/01/01 09:22:38;;;;;;;2.90;2.38;;;;;;;;;;4981911;28;20203;-66
2024/01/01 09:25:31;;;;;;;4.03;2.65;;;;;;;;;;4980276;28;20054;-60
2024/01/01 09:28:18;;;;;;;4.53;2.03;;;;;;;;;;4978555;28;20058;-60
2024/01/01 09:31:12;;;;;;;1.92;1.60;;;;;;;;;;4981938;28;20054;-60
2024/01/01 09:34:06;;;;;;;2.22;1.70;;;;;;;;;;4981215;28;20042;-60
2024/01/01 09:36:56;;;;;;;3.03;2.17;;;;;;;;;;4980453;28;20124;-60
2024/01/01 09:39:51;;;;;;;2.50;1.80;;;;;;;;;;4979521;28;20049;-67
2024/01/01 09:42:45;;;;;;;2.15;1.65;;;;;;;;;;4979325;28;20094;-67
2024/01/01 09:45:39;;;;;;;2.90;2.05;;;;;;;;;;4982819;28;20046;-67
2024/01/01 09:48:26;;;;;;;2.60;1.10;;;;;;;;;;4980662;28;20128;-67
2024/01/01 09:51:20;;;;;;;2.85;2.33;;;;;;;;;;4981089;28;20058;-66
2024/01/01 09:54:08;;;;;;;2.80;2.17;;;;;;;;;;4980621;28;20054;-60
2024/01/01 09:57:01;;;;;;;2.97;2.05;;;;;;;;;;4975996;28;20128;-60
2024/01/01 09:59:55;;;;;;;3.55;2.50;;;;;;;;;;4974654;28;20047;-59
2024/01/01 10:02:49;;;;;;;2.53;1.90;;;;;;;;;;4977587;28;20085;-60
2024/01/01 10:05:40;;;;;;;3.05;2.30;;;;;;;;;;4978914;28;20069;-66
2024/01/01 10:08:34;;;;;;;4.50;2.28;;;;;;;;;;4977756;28;20078;-67
2024/01/01 10:11:21;;;;;;;2.80;2.08;;;;;;;;;;4976274;28;20057;-69
2024/01/01 10:14:15;;;;;;;2.22;1.83;;;;;;;;;;4977281;28;20058;-67
2024/01/01 10:17:18;;;;;;;2.75;2.08;;;;;;;;;;4979410;28;20168;-67
2024/01/01 10:20:13;;;;;;;3.22;2.30;;;;;;;;;;4980293;28;20051;-67
2024/01/01 10:23:23;;;;;;;2.90;1.75;;;;;;;;;;4975087;28;20525;-61
2024/01/01 10:26:20;;;;;;;;;;;;;;;;;;4980708;28;20137;-62
2024/01/01 10:29:16;;;;;;;2.80;1.88;;;;;;;;;;4972851;28;19933;-60
2024/01/01 10:32:10;;;;;;;3.05;2.03;;;;;;;;;;4975458;28;20062;-61
2024/01/01 10:34:57;;;;;;;2.92;1.88;;;;;;;;;;4980366;28;20042;-61
2024/01/01 10:37:52;;;;;;;5.75;1.63;;;;;;;;;;4982407;28;20054;-61
2024/01/01 10:40:40;;;;;;;4.30;1.50;;;;;;;;;;4979219;28;20060;-65
2024/01/01 10:43:35;;;;;;;2.20;2.00;;;;;;;;;;4960268;28;20085;-61
2024/01/01 10:46:23;;;;;;;3.40;2.40;;;;;;;;;;4977002;28;20528;-61
2024/01/01 10:49:22;;;;;;;3.20;2.17;;;;;;;;;;4980897;28;20058;-54
2024/01/01 10:52:06;;;;;;;5.13;2.03;;;;;;;;;;4977489;28;20515;-55
2024/01/01 10:55:11;;;;;;;2.75;1.63;;;;;;;;;;4977706;28;20050;-58
2024/01/01 10:58:06;;;;;;;3.28;2.30;;;;;;;;;;4978175;28;20043;-54
2024/01/01 11:01:05;;;;;;;2.58;1.80;;;;;;;;;;4980124;28;20394;-60
2024/01/01 11:03:52;;;;;;;2.88;1.90;;;;;;;;;;4966614;28;20492;-69
2024/01/01 11:06:45;;;;;;;3.35;2.05;;;;;;;;;;4981644;28;20502;-67
2024/01/01 11:09:34;;;;;;;2.20;1.70;;;;;;;;;;4975311;28;20450;-67
2024/01/01 11:12:35;;;;;;;5.40;1.95;;;;;;;;;;4977419;28;20062;-67
2024/01/01 11:16:00;;;;;;;2.78;1.77;;;;;;;;;;4976873;28;20046;-69
2024/01/01 11:19:04;;;;;;;2.10;1.90;;;;;;;;;;4940377;28;20067;-67
2024/01/01 11:21:47;;;;;;;2.53;2.05;;;;;;;;;;4937933;28;20087;-67
2024/01/01 11:24:45;;;;;;;2.67;1.92;;;;;;;;;;4980243;28;20058;-66
2024/01/01 11:27:35;;;;;;;3.58;2.10;;;;;;;;;;4977769;28;20061;-61
2024/01/01 11:30:36;;;;;;;3.47;2.50;;;;;;;;;;4974447;28;20065;-52
2024/01/01 11:33:38;;;;;;;2.83;1.88;;;;;;;;;;4973951;28;20069;-56
2024/01/01 11:36:53;;;;;;;2.58;1.80;;;;;;;;;;4980499;28;20054;-53
2024/01/01 11:39:57;;;;;;;2.47;1.90;;;;;;;;;;4980123;28;20054;-56
2024/01/01 11:42:52;;;;;;;3.60;2.40;;;;;;;;;;4978268;28;20125;-55
2024/01/01 11:45:39;;;;;;;3.15;2.33;;;;;;;;;;4975470;28;20060;-54
2024/01/01 11:48:32;;;;;;;2.92;2.33;;;;;;;;;;4979897;28;20061;-63
2024/01/01 11:51:20;;;;;;;4.53;2.55;;;;;;;;;;4974918;28;20164;-63
2024/01/01 11:54:13;;;;;;;3.92;2.83;;;;;;;;;;4969212;28;20070;-61
2024/01/01 11:57:01;;;;;;;3.17;2.28;;;;;;;;;;4969787;28;20050;-61
2024/01/01 11:59:54;;;;;;;3.45;2.15;;;;;;;;;;4968291;28;20348;-61
2024/01/01 12:02:48;;;;;;;4.47;2.78;;;;;;;;;;4971813;28;20421;-61
2024/01/01 12:05:44;;;;;;;4.47;2.83;;;;;;;;;;4961657;28;20090;-62
2024/01/01 12:08:36;;;;;;;3.38;2.22;;;;;;;;;;4955545;28;20050;-62
2024/01/01 12:11:33;;;;;;;7.13;2.50;;;;;;;;;;4973875;28;20141;-62
2024/01/01 12:14:26;;;;;;;5.18;2.85;;;;;;;;;;4977199;28;20548;-61
2024/01/01 12:17:34;;;;;;;4.55;2.72;;;;;;;;;;4972366;28;20226;-50
2024/01/01 12:20:28;;;;;;;5.45;2.75;;;;;;;;;;4974836;28;20058;-62
2024/01/01 12:23:25;;;;;;;3.85;2.58;;;;;;;;;;4970904;28;20066;-62
2024/01/01 12:26:22;;;;;;;4.78;2.90;;;;;;;;;;4976695;28;20077;-61
2024/01/01 12:29:16;;;;;;;3.60;2.25;;;;;;;;;;4979953;28;20109;-61
2024/01/01 12:32:10;;;;;;;4.70;2.90;;;;;;;;;;4969178;28;20050;-61
2024/01/01 12:34:57;;;;;;;5.30;2.65;;;;;;;;;;4979326;28;20510;-61
2024/01/01 12:37:52;;;;;;;5.15;3.03;;;;;;;;;;4972719;28;20136;-62
2024/01/01 12:40:40;;;;;;;5.13;2.33;;;;;;;;;;4979960;28;20505;-61
2024/01/01 12:43:33;;;;;;;3.85;2.70;;;;;;;;;;4981200;28;20483;-61
2024/01/01 12:46:20;;;;;;;6.72;2.83;;;;;;;;;;4977934;28;20504;-67
2024/01/01 12:49:14;;;;;;;4.30;2.72;;;;;;;;;;4979632;28;20136;-67
2024/01/01 12:52:02;;;;;;;3.60;2.58;;;;;;;;;;4975998;28;21022;-66
2024/01/01 12:54:55;;;;;;;3.33;2.53;;;;;;;;;;4981106;28;20177;-68
2024/01/01 12:57:42;;;;;;;6.32;3.08;;;;;;;;;;4984853;28;20501;-66
2024/01/01 13:00:37;;;;;;;5.40;2.42;;;;;;;;;;4981064;28;20057;-69
2024/01/01 13:03:24;;;;;;;3.38;2.65;;;;;;;;;;4983762;28;20085;-56
2024/01/01 13:06:18;;;;;;;3.25;2.40;;;;;;;;;;4981827;28;20062;-58
2024/01/01 13:09:06;;;;;;;5.00;2.95;;;;;;;;;;4985326;28;20054;-59
2024/01/01 13:12:00;;;;;;;4.75;2.80;;;;;;;;;;4979660;28;20128;-66
2024/01/01 13:14:46;;;;;;;3.92;2.50;;;;;;;;;;4984075;28;20548;-58
2024/01/01 13:17:55;;;;;;;2.95;2.00;;;;;;;;;;4985027;28;20047;-60
2024/01/01 13:20:48;;;;;;;3.50;2.45;;;;;;;;;;4973570;28;20054;-59
2024/01/01 13:23:42;;;;;;;2.63;2.03;;;;;;;;;;4978557;28;20599;-56
2024/01/01 13:26:29;;;;;;;4.28;2.25;;;;;;;;;;4982150;28;21822;-60
2024/01/01 13:29:23;;;;;;;3.72;2.42;;;;;;;;;;4981966;28;20057;-59
2024/01/01 13:32:10;;;;;;;4.32;2.90;;;;;;;;;;4973850;28;20078;-58
2024/01/01 13:35:05;;;;;;;6.25;2.80;;;;;;;;;;4983992;28;20046;-58
2024/01/01 13:37:52;;;;;;;4.38;3.03;;;;;;;;;;4980634;28;20429;-58
2024/01/01 13:40:46;;;;;;;5.30;3.38;;;;;;;;;;4972291;28;20046;-47
2024/01/01 13:43:39;;;;;;;4.18;2.80;;;;;;;;;;4978573;28;20125;-61
2024/01/01 13:46:27;;;;;;;5.72;2.70;;;;;;;;;;4975895;28;20507;-61
2024/01/01 13:49:20;;;;;;;3.53;2.60;;;;;;;;;;4976752;28;20065;-62
2024/01/01 13:52:14;;;;;;;4.72;3.00;;;;;;;;;;4978785;28;20058;-63
2024/01/01 13:55:01;;;;;;;3.90;2.58;;;;;;;;;;4978371;28;20124;-60
2024/01/01 13:57:56;;;;;;;6.15;3.25;;;;;;;;;;4981533;28;20058;-61
2024/01/01 14:00:44;;;;;;;5.40;2.50;;;;;;;;;;4978133;28;20117;-60
2024/01/01 14:03:38;;;;;;;7.68;3.20;;;;;;;;;;4980812;28;20065;-61
2024/01/01 14:06:31;;;;;;;4.78;2.95;;;;;;;;;;4978596;28;20137;-63
2024/01/01 14:09:18;;;;;;;4.30;2.47;;;;;;;;;;4975917;28;20517;-58
2024/01/01 14:12:11;;;;;;;5.13;2.70;;;;;;;;;;4972193;28;20062;-62
2024/01/01 14:14:59;;;;;;;5.40;3.33;;;;;;;;;;4975879;28;20054;-62
2024/01/01 14:18:07;;;;;;;6.93;3.17;;;;;;;;;;4980346;28;20490;-62
2024/01/01 14:20:53;;;;;;;6.35;3.17;;;;;;;;;;4982951;28;20054;-63
2024/01/01 14:23:47;;;;;;;5.97;3.53;;;;;;;;;;4976673;28;20054;-63
2024/01/01 14:26:37;;;;;;;5.38;3.15;;;;;;;;;;4979878;28;20427;-59
2024/01/01 14:29:31;;;;;;;5.13;3.30;;;;;;;;;;4976063;28;20050;-69
2024/01/01 14:32:27;;;;;;;5.47;3.28;;;;;;;;;;4981462;28;20081;-69
2024/01/01 14:35:21;;;;;;;3.00;2.38;;;;;;;;;;4978490;28;20602;-69
2024/01/01 14:38:15;;;;;;;4.68;3.20;;;;;;;;;;4977291;28;20133;-63
2024/01/01 14:41:03;;;;;;;8.25;2.97;;;;;;;;;;4977353;28;20101;-51
2024/01/01 14:43:56;;;;;;;7.20;2.72;;;;;;;;;;4977303;28;20145;-53
2024/01/01 14:46:46;;;;;;;4.00;2.90;;;;;;;;;;4975034;28;20136;-49
2024/01/01 14:49:37;;;;;;;6.15;3.65;;;;;;;;;;4979397;28;20425;-50
2024/01/01 14:52:25;;;;;;;4.18;2.25;;;;;;;;;;4976575;28;20062;-52
2024/01/01 14:55:18;;;;;;;5.30;3.25;;;;;;;;;;4975112;28;20054;-63
2024/01/01 14:58:06;;;;;;;3.80;2.85;;;;;;;;;;4976104;28;20057;-63
2024/01/01 15:00:59;;;;;;;6.80;3.30;;;;;;;;;;4972746;28;20108;-62
2024/01/01 15:03:47;;;;;;;3.72;2.38;;;;;;;;;;4976266;28;20053;-63
2024/01/01 15:06:40;;;;;;;5.18;3.03;;;;;;;;;;4973023;28;20157;-68
2024/01/01 15:09:27;;;;;;;6.90;3.67;;;;;;;;;;4976729;28;20050;-50
2024/01/01 15:12:22;;;;;;;7.35;3.60;;;;;;;;;;4973790;28;20117;-53
2024/01/01 15:15:09;;;;;;;6.65;3.85;;;;;;;;;;4974348;28;20050;-55
2024/01/01 15:18:09;;;;;;;7.95;3.75;;;;;;;;;;4976219;28;20142;-48
2024/01/01 15:20:56;;;;;;;7.25;3.75;;;;;;;;;;4977016;28;20525;-51
2024/01/01 15:23:50;;;;;;;6.22;3.55;;;;;;;;;;4974838;28;20605;-63
2024/01/01 15:26:37;;;;;;;5.80;3.58;;;;;;;;;;4973372;28;20065;-63
2024/01/01 15:29:31;;;;;;;5.65;3.22;;;;;;;;;;4972970;28;20457;-63
2024/01/01 15:32:19;;;;;;;5.55;3.05;;;;;;;;;;4971426;28;20502;-63
2024/01/01 15:35:13;;;;;;;5.53;3.28;;;;;;;;;;4972782;28;20046;-63
2024/01/01 15:38:00;;;;;;;6.15;3.22;;;;;;;;;;4974592;28;20050;-61
2024/01/01 15:40:53;;;;;;;4.78;3.22;;;;;;;;;;4963431;28;20666;-61
2024/01/01 15:43:41;;;;;;;5.53;3.50;;;;;;;;;;4970373;28;20050;-60
2024/01/01 15:46:34;;;;;;;7.45;3.55;;;;;;;;;;4971529;28;20054;-61
2024/01/01 15:49:28;;;;;;;7.93;3.90;;;;;;;;;;4975468;28;20062;-61
2024/01/01 15:52:16;;;;;;;6.15;3.95;;;;;;;;;;4972969;28;20054;-61
2024/01/01 15:55:09;;;;;;;5.65;3.58;;;;;;;;;;4970137;28;20050;-61
2024/01/01 15:57:57;;;;;;;4.68;2.50;;;;;;;;;;4970169;28;20054;-53
2024/01/01 16:00:51;;;;;;;6.90;4.22;;;;;;;;;;4970695;28;20058;-48
2024/01/01 16:03:38;;;;;;;6.50;3.60;;;;;;;;;;4975429;28;20588;-50
2024/01/01 16:06:31;;;;;;;5.38;3.42;;;;;;;;;;4969872;28;20050;-51
2024/01/01 16:09:19;;;;;;;6.20;3.47;;;;;;;;;;4974000;28;20648;-50
2024/01/01 16:12:12;;;;;;;2.80;1.98;;;;;;;;;;4964351;28;20117;-61
2024/01/01 16:15:00;;;;;;;8.70;3.55;;;;;;;;;;4975346;28;20065;-50
2024/01/01 16:18:00;;;;;;;5.35;3.15;;;;;;;;;;4973696;28;20058;-52
2024/01/01 16:20:54;;;;;;;7.03;3.88;;;;;;;;;;4966014;28;20054;-53
2024/01/01 16:23:48;;;;;;;10.15;3.40;;;;;;;;;;4976155;28;20391;-54
2024/01/01 16:26:38;;;;;;;3.80;2.70;;;;;;;;;;4976184;28;20062;-52
2024/01/01 16:29:32;;;;;;;7.20;3.60;;;;;;;;;;4965874;28;20058;-62
2024/01/01 16:32:20;;;;;;;5.40;3.75;;;;;;;;;;4975859;28;20442;-61
2024/01/01 16:35:13;;;;;;;6.75;3.65;;;;;;;;;;4978223;28;20422;-61
2024/01/01 16:38:01;;;;;;;4.68;3.08;;;;;;;;;;4978713;28;20062;-61
2024/01/01 16:40:55;;;;;;;5.90;3.42;;;;;;;;;;4978271;28;20046;-61
2024/01/01 16:43:42;;;;;;;8.80;3.08;;;;;;;;;;4974217;28;20144;-61
2024/01/01 16:46:35;;;;;;;7.88;3.65;;;;;;;;;;4975213;28;20693;-61
2024/01/01 16:49:23;;;;;;;7.28;3.53;;;;;;;;;;4979659;28;20086;-61
2024/01/01 16:52:16;;;;;;;6.80;3.83;;;;;;;;;;4979020;28;20046;-49
2024/01/01 16:55:03;;;;;;;8.75;3.58;;;;;;;;;;4978670;28;20097;-55
2024/01/01 16:57:57;;;;;;;5.93;3.40;;;;;;;;;;4975084;28;20077;-52
2024/01/01 17:00:45;;;;;;;5.28;3.42;;;;;;;;;;4970953;28;20166;-53
2024/01/01 17:03:38;;;;;;;6.40;3.55;;;;;;;;;;4977658;28;20055;-52
2024/01/01 17:06:26;;;;;;;6.75;3.50;;;;;;;;;;4977035;28;20514;-61
2024/01/01 17:09:20;;;;;;;8.48;4.00;;;;;;;;;;4980225;28;20062;-57
2024/01/01 17:12:07;;;;;;;8.75;2.97;;;;;;;;;;4975338;28;20105;-56
2024/01/01 17:15:01;;;;;;;6.15;3.42;;;;;;;;;;4976340;28;20095;-52
2024/01/01 17:17:54;;;;;;;9.20;3.80;;;;;;;;;;4970593;28;20051;-52
2024/01/01 17:20:55;;;;;;;5.88;3.50;;;;;;;;;;4975274;28;20050;-55
2024/01/01 17:23:47;;;;;;;7.25;3.47;;;;;;;;;;4977619;28;20050;-54
2024/01/01 17:26:41;;;;;;;7.15;4.03;;;;;;;;;;4979203;28;20086;-63
2024/01/01 17:29:39;;;;;;;4.13;2.67;;;;;;;;;;4979674;28;20155;-66
2024/01/01 17:32:26;;;;;;;10.25;3.80;;;;;;;;;;4980747;28;20066;-61
2024/01/01 17:35:21;;;;;;;10.40;3.30;;;;;;;;;;4978821;28;20155;-57
2024/01/01 17:38:17;;;;;;;3.60;2.60;;;;;;;;;;4980090;28;20062;-63
2024/01/01 17:41:03;;;;;;;6.35;3.45;;;;;;;;;;4978267;28;20819;-63
2024/01/01 17:43:57;;;;;;;5.38;3.58;;;;;;;;;;4981040;28;20050;-63
2024/01/01 17:46:44;;;;;;;3.95;2.50;;;;;;;;;;4977952;28;20430;-63
2024/01/01 17:49:37;;;;;;;4.72;3.10;;;;;;;;;;4978161;28;20069;-63
2024/01/01 17:52:31;;;;;;;5.38;3.17;;;;;;;;;;4980045;28;20664;-60
2024/01/01 17:55:18;;;;;;;5.55;3.63;;;;;;;;;;4974803;28;20395;-59
2024/01/01 17:58:13;;;;;;;4.40;2.70;;;;;;;;;;4977654;28;20180;-59
2024/01/01 18:01:00;;;;;;;8.25;3.22;;;;;;;;;;4978850;28;20876;-59
2024/01/01 18:03:53;;;;;;;3.38;2.15;;;;;;;;;;4981836;28;20462;-68
2024/01/01 18:06:41;;;;;;;5.60;3.40;;;;;;;;;;4978711;28;20573;-63
2024/01/01 18:09:34;;;;;;;6.50;2.67;;;;;;;;;;4959529;28;20042;-62
2024/01/01 18:12:22;;;;;;;5.47;3.55;;;;;;;;;;4973643;28;20070;-63
2024/01/01 18:15:18;;;;;;;8.48;2.78;;;;;;;;;;4978645;28;20054;-63
2024/01/01 18:18:18;;;;;;;4.00;3.15;;;;;;;;;;4969368;28;20126;-62
2024/01/01 18:21:14;;;;;;;4.57;3.05;;;;;;;;;;4961752;28;20055;-59
2024/01/01 18:24:06;;;;;;;11.63;3.33;;;;;;;;;;4966235;28;20470;-60
2024/01/01 18:26:53;;;;;;;9.15;3.58;;;;;;;;;;4958623;28;20101;-59
2024/01/01 18:29:47;;;;;;;7.63;3.67;;;;;;;;;;4962514;28;20127;-58
2024/01/01 18:32:41;;;;;;;5.88;3.38;;;;;;;;;;4959644;28;20062;-56
2024/01/01 18:35:29;;;;;;;5.60;2.83;;;;;;;;;;4960492;28;20050;-58
2024/01/01 18:38:23;;;;;;;6.07;2.55;;;;;;;;;;4960987;28;20050;-58
2024/01/01 18:41:10;;;;;;;5.35;3.58;;;;;;;;;;4958730;28;20070;-63
2024/01/01 18:44:03;;;;;;;7.80;3.03;;;;;;;;;;4960318;28;20173;-63
2024/01/01 18:46:51;;;;;;;6.75;4.38;;;;;;;;;;4945415;28;20080;-64
2024/01/01 18:49:44;;;;;;;6.50;3.35;;;;;;;;;;4957052;28;20061;-50
2024/01/01 18:52:32;;;;;;;6.57;3.53;;;;;;;;;;4961105;28;20054;-60
2024/01/01 18:55:26;;;;;;;4.88;3.40;;;;;;;;;;4961676;28;20062;-64
2024/01/01 18:58:13;;;;;;;9.55;3.90;;;;;;;;;;4959546;28;20434;-63
2024/01/01 19:01:13;;;;;;;7.75;2.67;;;;;;;;;;4963969;28;20062;-63
2024/01/01 19:04:07;;;;;;;6.53;3.95;;;;;;;;;;4957330;28;20458;-63
2024/01/01 19:07:02;;;;;;;7.03;3.58;;;;;;;;;;4961782;28;20085;-63
2024/01/01 19:09:55;;;;;;;9.68;4.47;;;;;;;;;;4960300;28;20836;-63
2024/01/01 19:12:43;;;;;;;6.68;3.83;;;;;;;;;;4961064;28;20086;-63
2024/01/01 19:15:38;;;;;;;4.38;2.78;;;;;;;;;;4956077;28;20057;-63
2024/01/01 19:18:30;;;;;;;6.68;3.83;;;;;;;;;;4964680;28;20145;-60
2024/01/01 19:21:24;;;;;;;5.60;2.70;;;;;;;;;;4976947;28;20058;-54
2024/01/01 19:24:13;;;;;;;6.93;3.33;;;;;;;;;;4979547;28;20053;-55
2024/01/01 19:27:07;;;;;;;5.95;3.05;;;;;;;;;;4978906;28;20567;-57
2024/01/01 19:29:55;;;;;;;9.02;4.05;;;;;;;;;;4977219;28;20502;-56
2024/01/01 19:32:49;;;;;;;7.18;3.80;;;;;;;;;;4974655;28;20061;-57
2024/01/01 19:35:37;;;;;;;7.43;4.05;;;;;;;;;;4973125;28;20112;-58
2024/01/01 19:38:31;;;;;;;8.13;4.65;;;;;;;;;;4978983;28;20105;-68
2024/01/01 19:41:19;;;;;;;5.70;3.40;;;;;;;;;;4974106;28;20054;-68
2024/01/01 19:44:12;;;;;;;7.88;3.63;;;;;;;;;;4983065;28;20050;-68
2024/01/01 19:46:59;;;;;;;7.43;3.90;;;;;;;;;;4980347;28;20117;-63
2024/01/01 19:49:53;;;;;;;10.55;4.13;;;;;;;;;;4978480;28;20058;-63
2024/01/01 19:52:41;;;;;;;7.15;3.08;;;;;;;;;;4978520;28;20082;-63
2024/01/01 19:55:53;;;;;;;7.22;3.67;;;;;;;;;;4983908;28;20058;-63
2024/01/01 19:58:40;;;;;;;6.70;3.17;;;;;;;;;;4984439;28;20054;-63
2024/01/01 20:01:33;;;;;;;5.97;3.70;;;;;;;;;;4986147;28;20063;-63
2024/01/01 20:04:21;;;;;;;6.22;2.85;;;;;;;;;;4983007;28;20064;-63
2024/01/01 20:07:14;;;;;;;5.03;3.33;;;;;;;;;;4981757;28;20058;-63
2024/01/01 20:10:02;;;;;;;7.55;4.13;;;;;;;;;;4983278;28;20051;-63
2024/01/01 20:12:58;;;;;;;5.40;3.40;;;;;;;;;;4982335;28;20073;-63
2024/01/01 20:15:43;;;;;;;9.20;3.42;;;;;;;;;;4984679;28;20078;-60
2024/01/01 20:18:43;;;;;;;6.55;3.08;;;;;;;;;;4984606;28;20073;-68
2024/01/01 20:21:32;;;;;;;6.72;3.92;;;;;;;;;;4983918;28;20051;-68
2024/01/01 20:24:24;;;;;;;3.70;2.75;;;;;;;;;;4983567;28;20054;-69
2024/01/01 20:27:11;;;;;;;4.68;2.20;;;;;;;;;;4982651;28;20050;-68
2024/01/01 20:30:07;;;;;;;4.43;2.55;;;;;;;;;;4979218;28;20536;-68
2024/01/01 20:32:55;;;;;;;5.07;3.22;;;;;;;;;;4982167;28;20050;-69
2024/01/01 20:35:48;;;;;;;7.22;2.55;;;;;;;;;;4979812;28;20069;-68
2024/01/01 20:38:36;;;;;;;6.00;3.58;;;;;;;;;;4983900;28;20058;-68
2024/01/01 20:41:29;;;;;;;6.25;3.05;;;;;;;;;;4982344;28;20059;-69
2024/01/01 20:44:24;;;;;;;5.28;2.83;;;;;;;;;;4982991;28;20595;-62
2024/01/01 20:47:12;;;;;;;3.33;2.13;;;;;;;;;;4981384;28;20046;-69
2024/01/01 20:50:06;;;;;;;4.68;2.97;;;;;;;;;;4978656;28;20062;-69
2024/01/01 20:52:53;;;;;;;4.07;2.65;;;;;;;;;;4982374;28;20055;-69
2024/01/01 20:55:47;;;;;;;8.20;2.20;;;;;;;;;;4981722;28;20568;-68
2024/01/01 20:58:34;;;;;;;4.53;2.50;;;;;;;;;;4984113;28;20165;-69
2024/01/01 21:01:28;;;;;;;5.10;2.97;;;;;;;;;;4984109;28;20065;-59
2024/01/01 21:04:15;;;;;;;6.75;3.20;;;;;;;;;;4980022;28;20051;-59
2024/01/01 21:07:08;;;;;;;6.72;3.25;;;;;;;;;;4977464;28;20645;-61
2024/01/01 21:10:05;;;;;;;8.60;3.88;;;;;;;;;;4979319;28;20062;-60
2024/01/01 21:13:00;;;;;;;5.38;2.80;;;;;;;;;;4983678;28;20054;-62
2024/01/01 21:15:47;;;;;;;7.78;3.20;;;;;;;;;;4982034;28;20144;-68
2024/01/01 21:18:47;;;;;;;5.32;2.92;;;;;;;;;;4980581;28;20420;-68
2024/01/01 21:21:35;;;;;;;5.55;2.85;;;;;;;;;;4980773;28;20142;-69
2024/01/01 21:24:28;;;;;;;6.47;2.90;;;;;;;;;;4984130;28;20057;-68
2024/01/01 21:27:17;;;;;;;5.30;3.08;;;;;;;;;;4979350;28;20130;-68
2024/01/01 21:30:10;;;;;;;7.70;3.17;;;;;;;;;;4984160;28;20050;-64
2024/01/01 21:32:57;;;;;;;4.57;2.60;;;;;;;;;;4979506;28;20564;-63
2024/01/01 21:35:52;;;;;;;6.32;3.33;;;;;;;;;;4978872;28;20570;-63
2024/01/01 21:38:39;;;;;;;8.93;3.95;;;;;;;;;;4982346;28;20094;-63
2024/01/01 21:41:34;;;;;;;5.32;3.53;;;;;;;;;;4982128;28;20113;-56
2024/01/01 21:44:20;;;;;;;6.78;3.58;;;;;;;;;;4980317;28;20116;-50
2024/01/01 21:47:20;;;;;;;7.80;3.67;;;;;;;;;;4980244;28;20129;-50
2024/01/01 21:50:14;;;;;;;6.85;3.67;;;;;;;;;;4983243;28;20078;-55
2024/01/01 21:53:01;;;;;;;4.85;2.95;;;;;;;;;;4979187;28;20057;-53
2024/01/01 21:55:54;;;;;;;6.30;3.63;;;;;;;;;;4978790;28;20513;-53
2024/01/01 21:58:42;;;;;;;6.95;3.60;;;;;;;;;;4983364;28;20112;-62
2024/01/01 22:01:35;;;;;;;11.45;4.13;;;;;;;;;;4979379;28;20514;-61
2024/01/01 22:04:23;;;;;;;7.93;3.78;;;;;;;;;;4982477;28;20042;-61
2024/01/01 22:07:16;;;;;;;7.80;3.70;;;;;;;;;;4981604;28;20057;-62
2024/01/01 22:10:04;;;;;;;8.85;4.05;;;;;;;;;;4979446;28;20049;-61
2024/01/01 22:13:05;;;;;;;9.57;4.30;;;;;;;;;;4970931;28;20050;-65
2024/01/01 22:15:52;;;;;;;8.43;4.40;;;;;;;;;;4979578;28;20066;-62
2024/01/01 22:18:59;;;;;;;5.55;3.72;;;;;;;;;;4979458;28;20054;-65
2024/01/01 22:21:55;;;;;;;10.10;4.50;;;;;;;;;;4978665;28;20140;-61
2024/01/01 22:24:47;;;;;;;7.05;4.07;;;;;;;;;;4981092;28;20073;-64
2024/01/01 22:27:43;;;;;;;7.45;3.70;;;;;;;;;;4969031;28;20058;-61
2024/01/01 22:30:35;;;;;;;6.15;4.22;;;;;;;;;;4980366;28;20061;-64
2024/01/01 22:33:23;;;;;;;7.45;4.07;;;;;;;;;;4980600;28;20132;-64
2024/01/01 22:36:17;;;;;;;8.27;3.15;;;;;;;;;;4970706;28;20092;-64
2024/01/01 22:39:04;;;;;;;7.00;4.07;;;;;;;;;;4980529;28;20132;-57
2024/01/01 22:41:57;;;;;;;9.65;4.45;;;;;;;;;;4980663;28;20058;-60
2024/01/01 22:44:51;;;;;;;9.10;4.95;;;;;;;;;;4979326;28;20137;-59
2024/01/01 22:47:45;;;;;;;6.82;4.70;;;;;;;;;;4981424;28;20053;-58
2024/01/01 22:50:33;;;;;;;8.32;4.75;;;;;;;;;;4984254;28;20051;-59
2024/01/01 22:53:26;;;;;;;12.13;4.70;;;;;;;;;;4980821;28;20055;-58
2024/01/01 22:56:14;;;;;;;16.33;4.95;;;;;;;;;;4983605;28;20577;-64
2024/01/01 22:59:07;;;;;;;7.22;3.45;;;;;;;;;;4983100;28;20061;-63
2024/01/01 23:01:55;;;;;;;7.32;4.43;;;;;;;;;;4976342;28;20054;-63
2024/01/01 23:04:48;;;;;;;8.30;4.45;;;;;;;;;;4984730;28;20489;-64
2024/01/01 23:07:36;;;;;;;8.38;5.07;;;;;;;;;;4977784;28;20051;-69